Time;durP1;ratioP1;P1;durP2;ratioP2;P2;SDS_P1;SDS_P2;PMS_P1;PMS_P2;Temp;Humidity;BMP_temperature;BMP_pressure;BME280_temperature;BME280_humidity;BME280_pressure;Samples;Min_cycle;Max_cycle;Signal;HPM_P1;HPM_P2
2022/05/28 00:01:17;;;;;;;6.87;4.20;;;;;;;11.68;100.00;96557.50;5005896;28;20021;-77
2022/05/28 00:03:43;;;;;;;7.07;4.40;;;;;;;11.75;100.00;96558.50;5005249;28;21307;-77
2022/05/28 00:06:17;;;;;;;9.33;4.70;;;;;;;11.76;100.00;96560.97;4996660;28;20132;-77
2022/05/28 00:08:43;;;;;;;7.13;4.40;;;;;;;11.81;100.00;96565.78;5008756;28;20049;-77
2022/05/28 00:11:21;;;;;;;7.13;3.87;;;;;;;11.71;100.00;96563.28;4989003;28;20032;-77
2022/05/28 00:13:48;;;;;;;6.13;4.20;;;;;;;11.69;100.00;96565.22;5020479;28;20026;-77
2022/05/28 00:16:15;;;;;;;10.67;4.60;;;;;;;11.71;100.00;96563.28;4994955;28;20387;-77
2022/05/28 00:18:43;;;;;;;7.87;4.03;;;;;;;11.65;100.00;96565.72;4996826;28;20055;-77
2022/05/28 00:21:11;;;;;;;10.47;4.53;;;;;;;11.60;100.00;96562.72;4997169;28;20101;-77
2022/05/28 00:23:37;;;;;;;8.40;4.67;;;;;;;11.61;100.00;96561.75;5012759;28;20057;-77
2022/05/28 00:26:05;;;;;;;8.17;5.00;;;;;;;11.59;100.00;96564.53;5008830;28;20028;-77
2022/05/28 00:28:31;;;;;;;8.63;5.00;;;;;;;11.60;100.00;96560.91;5006666;28;20678;-77
2022/05/28 00:30:57;;;;;;;7.80;4.70;;;;;;;11.60;100.00;96560.06;5010667;28;20026;-77
2022/05/28 00:33:23;;;;;;;7.13;4.93;;;;;;;11.47;100.00;96556.09;5006634;28;20030;-77
2022/05/28 00:35:50;;;;;;;8.80;5.07;;;;;;;11.41;100.00;96546.16;5012133;28;20033;-77
2022/05/28 00:38:16;;;;;;;9.00;5.37;;;;;;;11.43;100.00;96544.19;5009457;28;20029;-77
2022/05/28 00:40:47;;;;;;;8.10;4.67;;;;;;;11.44;100.00;96539.78;4994256;28;20033;-77
2022/05/28 00:43:13;;;;;;;10.10;5.27;;;;;;;11.44;100.00;96540.59;5007481;28;20053;-78
2022/05/28 00:45:39;;;;;;;8.93;5.00;;;;;;;11.41;100.00;96545.34;5012796;28;20084;-77
2022/05/28 00:48:06;;;;;;;10.93;5.10;;;;;;;11.35;100.00;96541.53;5000973;28;20386;-77
2022/05/28 00:50:35;;;;;;;9.57;5.07;;;;;;;11.46;100.00;96535.16;5018283;28;20164;-77
2022/05/28 00:53:02;;;;;;;7.57;4.70;;;;;;;11.34;100.00;96529.34;5032193;28;20434;-77
2022/05/28 00:55:30;;;;;;;6.97;4.50;;;;;;;11.34;100.00;96539.88;5020284;28;20021;-77
2022/05/28 00:57:58;;;;;;;9.00;5.70;;;;;;;11.30;100.00;96541.16;5017178;28;21497;-77
2022/05/28 01:00:24;;;;;;;6.97;4.00;;;;;;;11.36;100.00;96544.97;5009423;28;20498;-77
2022/05/28 01:03:23;;;;;;;11.97;4.87;;;;;;;11.27;100.00;96555.47;5002099;28;20028;-77
2022/05/28 01:05:48;;;;;;;9.60;5.27;;;;;;;11.32;100.00;96555.81;5018635;28;20170;-78
2022/05/28 01:08:14;;;;;;;11.23;4.77;;;;;;;11.36;100.00;96547.59;5021734;28;20040;-77
2022/05/28 01:11:02;;;;;;;10.07;5.07;;;;;;;11.26;100.00;96550.34;5017862;28;20029;-77
2022/05/28 01:13:36;;;;;;;8.23;5.70;;;;;;;11.32;100.00;96547.09;5021958;28;20046;-77
2022/05/28 01:16:14;;;;;;;9.30;4.93;;;;;;;11.22;100.00;96547.19;5004957;28;20563;-77
2022/05/28 01:18:47;;;;;;;9.53;4.70;;;;;;;11.15;100.00;96537.47;5017092;28;20029;-78
2022/05/28 01:21:29;;;;;;;10.27;4.13;;;;;;;11.15;100.00;96532.19;5016450;28;20072;-77
2022/05/28 01:23:59;;;;;;;11.63;3.90;;;;;;;11.15;100.00;96526.94;5020013;28;20037;-77
2022/05/28 01:27:00;;;;;;;7.50;4.00;;;;;;;11.04;100.00;96528.84;5003811;28;20037;-77
2022/05/28 01:29:32;;;;;;;7.70;3.30;;;;;;;10.89;100.00;96524.28;5020707;28;20049;-77
2022/05/28 01:32:00;;;;;;;6.27;3.03;;;;;;;10.83;100.00;96520.47;5025521;28;20461;-77
2022/05/28 01:34:30;;;;;;;9.67;3.37;;;;;;;10.76;100.00;96524.69;5005876;28;21213;-77
2022/05/28 01:36:56;;;;;;;10.23;3.20;;;;;;;10.78;100.00;96531.44;5010523;28;20128;-77
2022/05/28 01:39:24;;;;;;;8.03;3.20;;;;;;;10.64;100.00;96531.19;5018138;28;20562;-77
2022/05/28 01:41:50;;;;;;;7.17;2.93;;;;;;;10.62;100.00;96526.88;5015914;28;20029;-77
2022/05/28 01:44:17;;;;;;;6.83;3.10;;;;;;;10.52;100.00;96533.22;5033181;28;20033;-77
2022/05/28 01:46:46;;;;;;;13.10;4.10;;;;;;;10.38;100.00;96530.13;5006656;28;20031;-77
2022/05/28 01:49:15;;;;;;;8.03;2.93;;;;;;;10.40;100.00;96531.81;5021202;28;20418;-77
2022/05/28 01:51:47;;;;;;;6.87;3.10;;;;;;;10.30;100.00;96531.88;5018794;28;20033;-77
2022/05/28 01:54:17;;;;;;;7.77;2.80;;;;;;;10.15;100.00;96534.97;5001295;28;20534;-77
2022/05/28 01:56:45;;;;;;;8.20;2.67;;;;;;;10.21;100.00;96533.56;5002621;28;20038;-76
2022/05/28 01:59:33;;;;;;;9.50;3.00;;;;;;;10.12;100.00;96537.91;5014717;28;20648;-77
2022/05/28 02:02:01;;;;;;;12.57;3.47;;;;;;;10.04;100.00;96537.81;5002518;28;20052;-77
2022/05/28 02:04:29;;;;;;;13.27;5.50;;;;;;;9.92;100.00;96539.00;5004858;28;20061;-77
2022/05/28 02:06:55;;;;;;;10.33;2.97;;;;;;;9.92;100.00;96539.00;5024412;28;20112;-77
2022/05/28 02:09:26;;;;;;;8.13;3.20;;;;;;;9.85;100.00;96532.69;5019216;28;20505;-77
2022/05/28 02:12:26;;;;;;;13.60;3.07;;;;;;;10.04;100.00;96540.44;5003150;28;20036;-77
2022/05/28 02:14:51;;;;;;;13.37;3.67;;;;;;;9.80;100.00;96538.38;5035527;28;20036;-77
2022/05/28 02:17:22;;;;;;;6.50;2.70;;;;;;;9.81;100.00;96541.84;5005274;28;20038;-77
2022/05/28 02:20:05;;;;;;;11.77;3.00;;;;;;;9.78;100.00;96542.13;5025807;28;20111;-77
2022/05/28 02:22:49;;;;;;;8.05;2.55;;;;;;;9.76;100.00;96542.28;5022560;28;20044;-77
2022/05/28 02:25:28;;;;;;;10.67;2.90;;;;;;;9.67;100.00;96538.72;5027571;28;20920;-77
2022/05/28 02:27:55;;;;;;;9.00;2.90;;;;;;;9.63;100.00;96532.13;5007659;28;20128;-77
2022/05/28 02:30:21;;;;;;;9.43;2.67;;;;;;;9.58;100.00;96534.34;5019523;28;20055;-77
2022/05/28 02:32:47;;;;;;;11.27;3.17;;;;;;;9.49;100.00;96529.97;5019893;28;20025;-77
2022/05/28 02:35:13;;;;;;;10.23;2.80;;;;;;;9.43;100.00;96523.50;5019774;28;20471;-77
2022/05/28 02:37:39;;;;;;;8.70;2.83;;;;;;;9.59;100.00;96529.91;5010791;28;20044;-77
2022/05/28 02:40:05;;;;;;;10.50;2.90;;;;;;;9.37;100.00;96529.31;5003579;28;20044;-77
2022/05/28 02:42:32;;;;;;;9.70;2.77;;;;;;;9.51;100.00;96527.19;5020356;28;20048;-77
2022/05/28 02:44:59;;;;;;;11.70;3.20;;;;;;;9.33;100.00;96525.34;5020249;28;20033;-77
2022/05/28 02:47:25;;;;;;;6.50;2.57;;;;;;;9.40;100.00;96521.16;5009117;28;20546;-77
2022/05/28 02:49:53;;;;;;;6.87;3.03;;;;;;;9.38;100.00;96522.28;5026099;28;20029;-77
2022/05/28 02:52:19;;;;;;;10.47;2.97;;;;;;;9.33;100.00;96529.78;5010336;28;20022;-77
2022/05/28 02:54:44;;;;;;;7.93;2.80;;;;;;;9.19;100.00;96528.44;5002569;28;20084;-77
2022/05/28 02:57:10;;;;;;;10.30;2.53;;;;;;;9.32;100.00;96528.09;5021580;28;20045;-77
2022/05/28 02:59:36;;;;;;;11.60;3.47;;;;;;;9.15;100.00;96520.03;5023237;28;20398;-77
2022/05/28 03:02:02;;;;;;;10.97;2.63;;;;;;;9.01;100.00;96528.34;5019617;28;20034;-77
2022/05/28 03:04:29;;;;;;;10.23;3.10;;;;;;;8.98;100.00;96536.50;5017817;28;20053;-77
2022/05/28 03:06:54;;;;;;;9.37;3.77;;;;;;;9.00;100.00;96526.69;5005846;28;20029;-77
2022/05/28 03:09:20;;;;;;;8.97;3.00;;;;;;;9.01;100.00;96530.97;5016020;28;20083;-77
2022/05/28 03:11:46;;;;;;;11.43;3.33;;;;;;;8.85;100.00;96528.94;4997899;28;20030;-77
2022/05/28 03:14:12;;;;;;;9.77;3.23;;;;;;;8.89;100.00;96521.63;5006644;28;20034;-78
2022/05/28 03:16:38;;;;;;;8.53;2.50;;;;;;;8.88;100.00;96525.19;5017195;28;20040;-78
2022/05/28 03:19:04;;;;;;;9.40;2.63;;;;;;;8.80;100.00;96530.34;5007100;28;20030;-77
2022/05/28 03:21:31;;;;;;;10.77;2.40;;;;;;;8.92;100.00;96527.41;5013761;28;20043;-77
2022/05/28 03:23:57;;;;;;;10.37;2.40;;;;;;;8.60;100.00;96526.91;5013626;28;20029;-77
2022/05/28 03:26:27;;;;;;;8.07;2.53;;;;;;;8.74;100.00;96524.66;5017052;28;20045;-77
2022/05/28 03:28:53;;;;;;;7.57;2.30;;;;;;;8.74;100.00;96529.91;4999369;28;20030;-77
2022/05/28 03:31:19;;;;;;;11.40;2.83;;;;;;;8.70;100.00;96527.72;5015326;28;20026;-77
2022/05/28 03:33:45;;;;;;;9.70;3.30;;;;;;;8.76;100.00;96527.16;5017105;28;20029;-77
2022/05/28 03:36:12;;;;;;;9.13;2.53;;;;;;;8.72;100.00;96531.03;5024673;28;20030;-77
2022/05/28 03:38:38;;;;;;;12.83;2.77;;;;;;;8.68;100.00;96535.72;5019675;28;20103;-77
2022/05/28 03:41:04;;;;;;;6.03;2.60;;;;;;;8.69;100.00;96541.81;5021534;28;20491;-77
2022/05/28 03:43:30;;;;;;;10.93;2.63;;;;;;;8.60;100.00;96547.88;5015498;28;20034;-77
2022/05/28 03:45:56;;;;;;;14.47;3.10;;;;;;;8.59;100.00;96547.06;5016460;28;20037;-77
2022/05/28 03:48:23;;;;;;;10.70;2.43;;;;;;;8.63;100.00;96548.44;5017015;28;20036;-77
2022/05/28 03:50:49;;;;;;;10.77;2.70;;;;;;;8.60;100.00;96553.94;5016201;28;20030;-77
2022/05/28 03:53:18;;;;;;;10.03;3.20;;;;;;;8.45;100.00;96558.78;5016019;28;20033;-77
2022/05/28 03:55:44;;;;;;;10.57;2.33;;;;;;;8.43;100.00;96562.50;5015846;28;20033;-79
2022/05/28 03:58:09;;;;;;;7.33;2.37;;;;;;;8.53;100.00;96562.50;5021707;28;20049;-77
2022/05/28 04:00:35;;;;;;;7.73;2.40;;;;;;;8.56;100.00;96557.00;5017440;28;20037;-77
2022/05/28 04:03:02;;;;;;;10.23;2.57;;;;;;;8.63;100.00;96563.34;5016129;28;20046;-77
2022/05/28 04:05:27;;;;;;;8.90;2.70;;;;;;;8.58;100.00;96560.28;5017866;28;20087;-77
2022/05/28 04:07:53;;;;;;;9.13;2.90;;;;;;;8.65;100.00;96558.75;5018641;28;20026;-77
2022/05/28 04:10:19;;;;;;;11.23;3.17;;;;;;;8.65;100.00;96564.84;5020153;28;21357;-77
2022/05/28 04:12:45;;;;;;;8.70;2.80;;;;;;;8.68;100.00;96559.31;4999140;28;20036;-77
2022/05/28 04:15:12;;;;;;;11.23;2.97;;;;;;;8.55;100.00;96560.56;5020466;28;20041;-77
2022/05/28 04:17:38;;;;;;;10.50;2.60;;;;;;;8.59;100.00;96562.78;5013012;28;20026;-77
2022/05/28 04:20:06;;;;;;;7.60;2.57;;;;;;;8.67;100.00;96569.94;5020304;28;20072;-78
2022/05/28 04:22:31;;;;;;;10.93;2.73;;;;;;;8.60;100.00;96571.47;5017205;28;20025;-77
2022/05/28 04:24:57;;;;;;;7.67;2.00;;;;;;;8.61;100.00;96568.69;5020661;28;20499;-77
2022/05/28 04:27:23;;;;;;;9.13;2.50;;;;;;;8.73;100.00;96570.22;5019619;28;20037;-77
2022/05/28 04:29:49;;;;;;;11.53;3.00;;;;;;;8.80;100.00;96567.03;5015596;28;20033;-77
2022/05/28 04:32:15;;;;;;;10.73;2.53;;;;;;;8.89;100.00;96569.66;5014577;28;20053;-77
2022/05/28 04:34:40;;;;;;;7.93;2.30;;;;;;;8.87;100.00;96570.75;5014038;28;20099;-77
2022/05/28 04:37:06;;;;;;;8.90;3.30;;;;;;;8.86;100.00;96571.72;5014510;28;20037;-78
2022/05/28 04:39:32;;;;;;;8.93;2.63;;;;;;;8.88;100.00;96577.66;5012223;28;20033;-78
2022/05/28 04:41:57;;;;;;;8.90;2.47;;;;;;;8.92;100.00;96577.25;5013956;28;20042;-77
2022/05/28 04:44:23;;;;;;;9.97;2.70;;;;;;;8.93;100.00;96568.41;5017173;28;20116;-78
2022/05/28 04:46:49;;;;;;;9.63;2.70;;;;;;;9.20;100.00;96579.94;4996744;28;20083;-77
2022/05/28 04:49:15;;;;;;;9.47;2.33;;;;;;;9.18;100.00;96580.06;5016405;28;20040;-78
2022/05/28 04:51:41;;;;;;;11.93;2.70;;;;;;;9.08;100.00;96584.50;5015307;28;20124;-78
2022/05/28 04:54:07;;;;;;;10.47;2.93;;;;;;;9.24;100.00;96585.72;5015980;28;20036;-77
2022/05/28 04:56:32;;;;;;;10.07;3.37;;;;;;;9.23;100.00;96581.47;5018200;28;20033;-78
2022/05/28 04:58:58;;;;;;;9.37;2.43;;;;;;;9.41;100.00;96585.81;5019584;28;20038;-78
2022/05/28 05:01:25;;;;;;;11.77;2.93;;;;;;;9.54;100.00;96585.50;5014535;28;20034;-78
2022/05/28 05:03:51;;;;;;;12.83;3.30;;;;;;;9.32;100.00;96591.94;5014253;28;20030;-78
2022/05/28 05:06:17;;;;;;;10.20;2.57;;;;;;;9.57;100.00;96589.63;5005985;28;20037;-78
2022/05/28 05:08:44;;;;;;;9.27;3.10;;;;;;;9.67;100.00;96591.25;5017931;28;20180;-78
2022/05/28 05:11:10;;;;;;;7.93;2.73;;;;;;;9.93;100.00;96585.34;5019166;28;20500;-78
2022/05/28 05:13:36;;;;;;;18.67;3.73;;;;;;;9.90;100.00;96583.00;5016851;28;20044;-77
2022/05/28 05:16:08;;;;;;;9.20;2.97;;;;;;;10.17;100.00;96579.53;5018820;28;20033;-78
2022/05/28 05:18:33;;;;;;;11.57;3.13;;;;;;;10.03;100.00;96580.84;5021040;28;20043;-78
2022/05/28 05:20:59;;;;;;;11.10;3.13;;;;;;;10.27;100.00;96584.75;5018390;28;20041;-78
2022/05/28 05:23:25;;;;;;;9.50;2.57;;;;;;;10.26;100.00;96580.44;5017589;28;20033;-78
2022/05/28 05:25:51;;;;;;;9.57;2.77;;;;;;;10.13;100.00;96592.13;5017678;28;20091;-77
2022/05/28 05:28:16;;;;;;;8.80;2.93;;;;;;;10.34;100.00;96583.16;5018333;28;20075;-77
2022/05/28 05:30:42;;;;;;;11.23;2.90;;;;;;;10.09;100.00;96601.28;4999612;28;20048;-78
2022/05/28 05:33:08;;;;;;;8.83;2.70;;;;;;;10.23;100.00;96596.47;5012227;28;20037;-78
2022/05/28 05:35:33;;;;;;;15.70;3.03;;;;;;;10.35;100.00;96593.53;5022419;28;20031;-77
2022/05/28 05:38:05;;;;;;;6.83;2.70;;;;;;;10.29;100.00;96596.75;5017760;28;20045;-78
2022/05/28 05:40:37;;;;;;;11.17;2.73;;;;;;;10.34;100.00;96598.94;5020945;28;20025;-77
2022/05/28 05:43:04;;;;;;;14.10;3.10;;;;;;;10.41;100.00;96600.00;5021037;28;20079;-76
2022/05/28 05:45:30;;;;;;;11.40;3.13;;;;;;;10.79;100.00;96593.59;4995499;28;20053;-77
2022/05/28 05:47:56;;;;;;;7.33;2.13;;;;;;;10.86;100.00;96588.56;5017475;28;20486;-77
2022/05/28 05:50:23;;;;;;;8.17;2.53;;;;;;;10.43;100.00;96598.06;5035426;28;20038;-77
2022/05/28 05:52:49;;;;;;;5.80;2.40;;;;;;;10.56;100.00;96603.78;5037800;28;20037;-77
2022/05/28 05:55:15;;;;;;;8.80;2.47;;;;;;;11.12;100.00;96598.31;5011330;28;20073;-77
2022/05/28 05:57:41;;;;;;;12.20;2.43;;;;;;;11.54;100.00;96596.59;5018291;28;20037;-78
2022/05/28 06:00:07;;;;;;;8.00;1.97;;;;;;;11.90;100.00;96598.28;5018746;28;20099;-77
2022/05/28 06:02:33;;;;;;;6.13;2.03;;;;;;;11.72;100.00;96600.97;5018284;28;20048;-77
2022/05/28 06:04:59;;;;;;;8.73;2.57;;;;;;;12.38;100.00;96596.81;5020802;28;21302;-77
2022/05/28 06:07:25;;;;;;;8.70;1.77;;;;;;;12.50;100.00;96593.69;5020040;28;20034;-77
2022/05/28 06:09:51;;;;;;;7.07;2.13;;;;;;;13.03;97.67;96594.22;5020284;28;20068;-77
2022/05/28 06:12:17;;;;;;;6.23;1.80;;;;;;;12.73;93.02;96595.69;5020314;28;20029;-77
2022/05/28 06:14:43;;;;;;;6.53;1.90;;;;;;;12.96;93.27;96583.50;5023549;28;20036;-77
2022/05/28 06:17:08;;;;;;;5.57;1.70;;;;;;;12.97;89.65;96587.78;5017037;28;20032;-78
2022/05/28 06:19:34;;;;;;;8.53;2.10;;;;;;;13.29;88.17;96594.06;5002543;28;20040;-77
2022/05/28 06:22:00;;;;;;;8.40;2.13;;;;;;;13.33;80.56;96592.72;5017014;28;20025;-77
2022/05/28 06:24:27;;;;;;;6.87;2.07;;;;;;;13.27;86.59;96590.75;5019409;28;20625;-77
2022/05/28 06:26:53;;;;;;;7.27;1.57;;;;;;;13.48;80.10;96590.25;5020927;28;20048;-77
2022/05/28 06:29:19;;;;;;;8.10;1.97;;;;;;;13.80;80.40;96589.31;5021100;28;20018;-77
2022/05/28 06:31:45;;;;;;;6.00;1.50;;;;;;;14.29;79.87;96593.59;5016299;28;20056;-78
2022/05/28 06:34:10;;;;;;;4.97;1.53;;;;;;;15.12;70.56;96584.09;5001620;28;20034;-78
2022/05/28 06:36:36;;;;;;;4.30;1.37;;;;;;;14.89;73.63;96586.75;5015546;28;20423;-78
2022/05/28 06:39:02;;;;;;;6.27;1.43;;;;;;;14.31;74.63;96587.09;5018734;28;20083;-78
2022/05/28 06:41:28;;;;;;;7.63;1.60;;;;;;;15.44;68.27;96578.50;5028644;28;20025;-77
2022/05/28 06:43:54;;;;;;;8.20;2.17;;;;;;;15.59;63.39;96583.78;5027323;28;20390;-78
2022/05/28 06:46:20;;;;;;;8.50;1.83;;;;;;;15.15;65.61;96584.53;5026453;28;20022;-78
2022/05/28 06:48:45;;;;;;;11.10;1.83;;;;;;;15.00;66.65;96581.88;5029047;28;20030;-78
2022/05/28 06:51:12;;;;;;;8.20;1.50;;;;;;;15.38;63.59;96583.69;5033511;28;20033;-78
2022/05/28 06:53:45;;;;;;;5.57;1.40;;;;;;;16.03;63.43;96575.88;5046978;28;20033;-78
2022/05/28 06:56:12;;;;;;;6.63;1.40;;;;;;;16.81;57.39;96581.47;5038043;28;20065;-78
2022/05/28 06:58:38;;;;;;;6.85;1.73;;;;;;;15.95;58.58;96581.25;5034317;28;20060;-76
2022/05/28 07:01:06;;;;;;;7.63;1.50;;;;;;;15.32;58.05;96578.13;5039395;28;20040;-77
2022/05/28 07:03:33;;;;;;;7.50;1.60;;;;;;;15.13;58.67;96581.28;5036073;28;20024;-79
2022/05/28 07:05:59;;;;;;;8.70;1.52;;;;;;;15.76;58.85;96573.84;5037399;28;20041;-76
2022/05/28 07:08:25;;;;;;;6.38;1.30;;;;;;;15.44;59.24;96582.97;5020979;28;20025;-77
2022/05/28 07:10:57;;;;;;;8.35;1.63;;;;;;;15.65;63.18;96585.72;5019143;28;20076;-76
2022/05/28 07:13:25;;;;;;;10.10;1.83;;;;;;;15.51;60.29;96578.59;5020953;28;20029;-78
2022/05/28 07:15:51;;;;;;;6.72;1.55;;;;;;;15.96;56.64;96577.63;5017199;28;20037;-77
2022/05/28 07:18:18;;;;;;;6.25;1.40;;;;;;;16.70;55.55;96577.44;5014887;28;20049;-76
2022/05/28 07:20:44;;;;;;;7.03;2.08;;;;;;;15.88;58.47;96579.53;5019674;28;20399;-77
2022/05/28 07:23:13;;;;;;;12.27;1.88;;;;;;;15.92;58.26;96580.81;5019816;28;20049;-78
2022/05/28 07:25:40;;;;;;;7.53;1.90;;;;;;;16.45;56.76;96584.09;5011447;28;20100;-77
2022/05/28 07:28:26;;;;;;;5.53;1.42;;;;;;;17.62;52.98;96571.25;5021141;28;20034;-77
2022/05/28 07:30:53;;;;;;;8.00;2.63;;;;;;;16.82;52.72;96572.47;5021980;28;20038;-77
2022/05/28 07:33:19;;;;;;;6.00;1.30;;;;;;;16.06;53.91;96569.34;5019729;28;20442;-77
2022/05/28 07:35:45;;;;;;;7.68;1.38;;;;;;;15.28;59.68;96565.41;5006437;28;20423;-76
2022/05/28 07:38:11;;;;;;;7.22;1.55;;;;;;;17.33;53.69;96553.66;5022636;28;20051;-77
2022/05/28 07:40:37;;;;;;;8.93;2.63;;;;;;;16.02;57.13;96562.78;5026639;28;20033;-78
2022/05/28 07:43:03;;;;;;;8.55;3.83;;;;;;;16.62;55.79;96561.63;5019881;28;20075;-78
2022/05/28 07:45:30;;;;;;;8.80;3.70;;;;;;;16.53;52.35;96557.44;5021080;28;20498;-76
2022/05/28 07:47:56;;;;;;;5.43;1.10;;;;;;;17.77;51.84;96552.56;5012820;28;20020;-77
2022/05/28 07:50:22;;;;;;;5.60;1.63;;;;;;;17.75;51.64;96551.09;5025015;28;20514;-77
2022/05/28 07:52:48;;;;;;;6.55;1.38;;;;;;;17.08;51.02;96553.28;5024516;28;20445;-76
2022/05/28 07:55:14;;;;;;;6.45;1.90;;;;;;;18.28;48.87;96546.03;5032661;28;20116;-76
2022/05/28 07:57:40;;;;;;;7.70;1.42;;;;;;;18.06;48.30;96548.81;5033835;28;20393;-76
2022/05/28 08:00:07;;;;;;;6.75;1.48;;;;;;;17.51;49.63;96549.72;5026794;28;20750;-77
2022/05/28 08:02:37;;;;;;;4.50;1.25;;;;;;;17.78;48.63;96548.88;5023816;28;20041;-78
2022/05/28 08:05:03;;;;;;;5.70;1.38;;;;;;;17.63;47.42;96550.81;5027766;28;20026;-77
2022/05/28 08:07:29;;;;;;;3.05;1.17;;;;;;;19.88;44.80;96541.56;5007810;28;20037;-76
2022/05/28 08:09:55;;;;;;;7.15;1.33;;;;;;;20.84;41.06;96541.53;5037769;28;20033;-76
2022/05/28 08:12:24;;;;;;;6.47;1.58;;;;;;;20.45;42.12;96537.22;5026874;28;20115;-77
2022/05/28 08:14:50;;;;;;;6.45;1.10;;;;;;;17.56;46.16;96540.13;5026878;28;20029;-76
2022/05/28 08:17:16;;;;;;;5.97;1.40;;;;;;;16.86;46.53;96555.13;5021836;28;20064;-74
2022/05/28 08:19:43;;;;;;;5.72;1.33;;;;;;;16.82;46.66;96545.09;5009906;28;20541;-74
2022/05/28 08:24:57;;;;;;;7.10;1.25;;;;;;;21.53;38.16;96522.88;5034882;28;20041;-77
2022/05/28 08:27:41;;;;;;;7.32;1.60;;;;;;;21.39;38.76;96527.53;5019798;28;20044;-76
2022/05/28 08:30:09;;;;;;;6.57;1.42;;;;;;;19.58;42.99;96541.22;5018971;28;20047;-74
2022/05/28 08:32:35;;;;;;;6.68;2.25;;;;;;;18.55;43.91;96541.59;5007454;28;20053;-74
2022/05/28 08:35:05;;;;;;;6.07;2.00;;;;;;;17.43;47.48;96545.34;5029584;28;20045;-76
2022/05/28 08:37:34;;;;;;;4.45;1.20;;;;;;;19.76;43.28;96531.56;5034180;28;20567;-78
2022/05/28 08:40:00;;;;;;;6.50;1.38;;;;;;;20.75;40.71;96534.00;5029824;28;20033;-78
2022/05/28 08:42:28;;;;;;;6.00;1.50;;;;;;;20.81;39.43;96531.28;5033328;28;20054;-78
2022/05/28 08:44:55;;;;;;;4.72;0.98;;;;;;;21.34;37.87;96525.53;5037035;28;20102;-78
2022/05/28 08:47:27;;;;;;;6.65;1.52;;;;;;;22.04;35.69;96519.03;5027307;28;20025;-78
2022/05/28 08:49:53;;;;;;;3.13;1.05;;;;;;;22.02;37.27;96527.28;5023900;28;20120;-77
2022/05/28 08:52:31;;;;;;;4.63;1.10;;;;;;;20.53;41.15;96525.53;5004159;28;20402;-76
2022/05/28 08:55:10;;;;;;;3.88;1.10;;;;;;;19.97;40.07;96537.66;5037838;28;20097;-76
2022/05/28 08:58:00;;;;;;;5.93;1.70;;;;;;;18.04;43.17;96540.22;5035761;28;20456;-76
2022/05/28 09:00:36;;;;;;;10.88;4.55;;;;;;;18.17;44.20;96539.41;5028621;28;20040;-76
2022/05/28 09:03:24;;;;;;;5.90;1.75;;;;;;;17.37;45.87;96540.81;5021725;28;20497;-78
2022/05/28 09:06:02;;;;;;;8.23;1.73;;;;;;;16.92;45.79;96538.44;5032622;28;20068;-76
2022/05/28 09:08:51;;;;;;;12.00;5.47;;;;;;;19.39;42.83;96526.91;5034381;28;20056;-76
2022/05/28 09:11:35;;;;;;;8.05;2.83;;;;;;;21.42;38.43;96522.56;5041542;28;20113;-77
2022/05/28 09:14:26;;;;;;;2.53;1.00;;;;;;;21.59;36.61;96516.66;5037359;28;20087;-80
2022/05/28 09:16:59;;;;;;;8.15;1.50;;;;;;;19.12;41.73;96524.25;5030003;28;20036;-79
2022/05/28 09:19:27;;;;;;;;;;;;;;;18.07;43.03;96538.97;5030800;28;20048;-79
2022/05/28 09:21:53;;;;;;;5.28;1.30;;;;;;;16.57;46.50;96542.78;5011602;28;20047;-79
2022/05/28 09:24:22;;;;;;;4.32;1.00;;;;;;;16.10;46.56;96544.13;5026919;28;20049;-79
2022/05/28 09:27:03;;;;;;;3.40;0.95;;;;;;;18.46;42.21;96521.50;5025041;28;20045;-79
2022/05/28 09:29:35;;;;;;;3.17;1.10;;;;;;;19.07;42.62;96519.53;5032294;28;20029;-79
2022/05/28 09:32:20;;;;;;;3.35;1.02;;;;;;;20.21;39.74;96514.75;5036638;28;20033;-79
2022/05/28 09:35:00;;;;;;;6.22;2.58;;;;;;;20.39;41.75;96512.22;5038355;28;20044;-79
2022/05/28 09:37:35;;;;;;;6.03;2.05;;;;;;;18.71;41.43;96506.59;5041561;28;20021;-79
2022/05/28 09:40:21;;;;;;;11.25;6.13;;;;;;;19.32;42.12;96510.91;5037551;28;20120;-81
2022/05/28 09:43:17;;;;;;;4.03;1.00;;;;;;;17.63;44.40;96510.91;5038886;28;20033;-80
2022/05/28 09:45:48;;;;;;;4.53;1.23;;;;;;;17.00;45.28;96513.59;5033654;28;20028;-80
2022/05/28 09:48:20;;;;;;;7.15;1.45;;;;;;;16.12;46.16;96520.88;5047330;28;20071;-79
2022/05/28 09:50:46;;;;;;;5.00;1.00;;;;;;;16.45;46.62;96513.25;5040993;28;20460;-79
2022/05/28 09:56:08;;;;;;;4.50;1.38;;;;;;;16.75;46.86;96515.81;5041199;28;20432;-79
2022/05/28 09:58:38;;;;;;;5.15;1.27;;;;;;;18.51;43.54;96503.91;5015614;28;20069;-80
2022/05/28 10:01:11;;;;;;;3.38;0.98;;;;;;;19.40;40.52;96497.34;5041648;28;20036;-80
2022/05/28 10:04:44;;;;;;;;;;;;;;;20.25;39.32;96495.44;5037933;28;20037;-80
2022/05/28 10:06:53;;;;;;;5.45;0.93;;;;;;;19.75;40.44;96489.06;5040066;28;19917;-79
2022/05/28 10:09:27;;;;;;;5.65;1.35;;;;;;;22.12;36.47;96481.22;5037769;28;20037;-80
2022/05/28 10:11:57;;;;;;;4.40;1.23;;;;;;;19.68;39.60;96486.41;5022554;28;20141;-80
2022/05/28 10:14:24;;;;;;;4.38;1.23;;;;;;;19.20;40.90;96485.88;5044973;28;20021;-79
2022/05/28 10:16:55;;;;;;;3.30;1.10;;;;;;;18.71;40.99;96479.09;5030784;28;20471;-79
2022/05/28 10:19:55;;;;;;;5.88;1.70;;;;;;;17.22;42.36;96492.25;5031256;28;20026;-79
2022/05/28 10:22:24;;;;;;;4.95;0.75;;;;;;;17.66;41.79;96489.25;5056993;28;20881;-80
2022/05/28 10:24:58;;;;;;;3.08;0.88;;;;;;;19.01;39.14;96477.72;5032958;28;20040;-79
2022/05/28 10:27:28;;;;;;;5.78;1.92;;;;;;;19.32;38.75;96473.56;5029269;28;20070;-80
2022/05/28 10:29:57;;;;;;;6.25;1.48;;;;;;;20.93;37.06;96460.03;5039285;28;20028;-80
2022/05/28 10:32:29;;;;;;;5.72;1.90;;;;;;;20.69;35.54;96463.50;5023198;28;20030;-80
2022/05/28 10:35:06;;;;;;;7.38;1.35;;;;;;;20.49;37.24;96475.16;5029752;28;20109;-81
2022/05/28 10:37:33;;;;;;;4.75;1.02;;;;;;;19.58;38.17;96474.53;5034494;28;20029;-78
2022/05/28 10:40:18;;;;;;;3.67;0.98;;;;;;;19.25;39.11;96481.59;5036477;28;20044;-79
2022/05/28 10:42:45;;;;;;;8.43;1.75;;;;;;;17.88;41.37;96482.00;5032528;28;20730;-79
2022/05/28 10:45:17;;;;;;;7.90;1.80;;;;;;;17.89;41.52;96483.66;5036319;28;20712;-79
2022/05/28 10:47:56;;;;;;;4.88;1.20;;;;;;;17.30;42.53;96492.09;5028114;28;20517;-79
2022/05/28 10:50:42;;;;;;;6.05;1.42;;;;;;;17.48;43.06;96480.97;5023661;28;20041;-80
2022/05/28 10:53:40;;;;;;;3.58;1.27;;;;;;;17.27;42.66;96474.72;5030965;28;20045;-79
2022/05/28 10:56:31;;;;;;;6.63;1.13;;;;;;;17.96;42.82;96476.50;5015777;28;20072;-79
2022/05/28 10:59:32;;;;;;;4.25;1.00;;;;;;;17.28;43.58;96470.22;5026310;28;20441;-80
2022/05/28 11:02:16;;;;;;;5.65;1.15;;;;;;;18.93;41.74;96467.25;5003720;28;20045;-79
2022/05/28 11:05:05;;;;;;;9.15;3.22;;;;;;;20.58;38.58;96466.91;5024191;28;20069;-79
2022/05/28 11:08:21;;;;;;;6.57;2.05;;;;;;;19.95;39.43;96457.81;5036135;28;20990;-77
2022/05/28 11:11:03;;;;;;;4.05;1.65;;;;;;;19.72;41.10;96462.81;5027329;28;20415;-82
2022/05/28 11:14:07;;;;;;;6.75;1.33;;;;;;;19.10;39.10;96451.66;5042280;28;20407;-79
2022/05/28 11:16:56;;;;;;;4.70;1.20;;;;;;;18.62;40.65;96451.88;4989800;28;20033;-80
2022/05/28 11:19:53;;;;;;;5.82;1.20;;;;;;;17.86;40.74;96452.13;5014946;28;20039;-81
2022/05/28 11:22:49;;;;;;;4.68;1.48;;;;;;;18.20;40.80;96447.69;5015259;28;20056;-80
2022/05/28 11:26:02;;;;;;;6.28;2.00;;;;;;;17.90;41.09;96448.84;5037899;28;20037;-84
2022/05/28 11:28:47;;;;;;;5.53;1.45;;;;;;;17.32;43.41;96460.84;5010083;28;20033;-82
2022/05/28 11:31:50;;;;;;;8.35;1.33;;;;;;;18.36;42.32;96456.13;5021100;28;20041;-79
2022/05/28 11:34:25;;;;;;;8.65;3.67;;;;;;;16.81;44.24;96450.50;5026947;28;20025;-81
2022/05/28 11:37:02;;;;;;;9.52;4.18;;;;;;;16.42;44.20;96460.53;5027585;28;20098;-81
2022/05/28 11:39:58;;;;;;;11.30;3.65;;;;;;;16.71;45.18;96448.13;5008737;28;20549;-81
2022/05/28 11:42:59;;;;;;;4.38;1.52;;;;;;;16.90;44.92;96451.97;5034186;28;20038;-79
2022/05/28 11:45:42;;;;;;;6.45;1.50;;;;;;;17.19;44.74;96443.78;5026150;28;20091;-79
2022/05/28 11:48:23;;;;;;;4.68;1.30;;;;;;;17.10;45.66;96447.63;5042170;28;20025;-81
2022/05/28 11:53:52;;;;;;;5.38;1.10;;;;;;;16.31;45.78;96436.34;5020348;28;20029;-80
2022/05/28 11:56:22;;;;;;;4.10;1.15;;;;;;;15.87;46.08;96450.59;5026757;28;20104;-80